Time;durP1;ratioP1;P1;durP2;ratioP2;P2;SDS_P1;SDS_P2;PMS_P1;PMS_P2;Temp;Humidity;BMP_temperature;BMP_pressure;BME280_temperature;BME280_humidity;BME280_pressure;Samples;Min_cycle;Max_cycle;Signal;HPM_P1;HPM_P2
2021/07/12 00:02:08;;;;;;;3.43;1.20;;;;;;;;;;5017260;28;20520;-83
2021/07/12 00:04:34;;;;;;;2.80;1.23;;;;;;;;;;5016067;28;20473;-82
2021/07/12 00:07:00;;;;;;;0.80;0.80;;;;;;;;;;5018029;28;20965;-83
2021/07/12 00:09:26;;;;;;;1.00;0.90;;;;;;;;;;5005423;28;20425;-82
2021/07/12 00:11:52;;;;;;;2.20;1.80;;;;;;;;;;5016173;28;20827;-82
2021/07/12 00:14:18;;;;;;;1.20;1.10;;;;;;;;;;5012915;28;20424;-82
2021/07/12 00:16:44;;;;;;;1.17;1.07;;;;;;;;;;5012971;28;20729;-81
2021/07/12 00:19:10;;;;;;;0.90;0.77;;;;;;;;;;5013365;28;20416;-82
2021/07/12 00:21:36;;;;;;;0.70;0.67;;;;;;;;;;5017667;28;20528;-83
2021/07/12 00:24:03;;;;;;;0.77;0.77;;;;;;;;;;4995551;28;20481;-82
2021/07/12 00:26:35;;;;;;;1.30;1.20;;;;;;;;;;5011248;28;20944;-83
2021/07/12 00:29:01;;;;;;;1.03;1.03;;;;;;;;;;5016380;28;20453;-82
2021/07/12 00:31:29;;;;;;;0.70;0.70;;;;;;;;;;5011996;28;20473;-83
2021/07/12 00:33:55;;;;;;;1.43;1.20;;;;;;;;;;5014612;28;20465;-81
2021/07/12 00:36:21;;;;;;;1.53;1.43;;;;;;;;;;5005300;28;20468;-81
2021/07/12 00:38:47;;;;;;;1.53;1.43;;;;;;;;;;4998556;28;20484;-80
2021/07/12 00:41:16;;;;;;;1.50;1.40;;;;;;;;;;5010159;28;20978;-80
2021/07/12 00:43:42;;;;;;;1.53;1.43;;;;;;;;;;5008896;28;20578;-80
2021/07/12 00:46:09;;;;;;;0.80;0.80;;;;;;;;;;5009928;28;20544;-80
2021/07/12 00:48:35;;;;;;;0.77;0.77;;;;;;;;;;5004281;28;20449;-79
2021/07/12 00:51:02;;;;;;;1.33;1.27;;;;;;;;;;5017017;28;20592;-81
2021/07/12 00:53:28;;;;;;;0.80;0.70;;;;;;;;;;5018033;28;20425;-81
2021/07/12 00:55:54;;;;;;;1.20;1.10;;;;;;;;;;5025402;28;20513;-80
2021/07/12 00:58:22;;;;;;;1.30;1.00;;;;;;;;;;5022063;28;20479;-80
2021/07/12 01:00:50;;;;;;;1.30;1.20;;;;;;;;;;5016065;28;20417;-79
2021/07/12 01:03:17;;;;;;;1.10;1.10;;;;;;;;;;5015962;28;20458;-80
2021/07/12 01:05:43;;;;;;;0.70;0.70;;;;;;;;;;5017860;28;20445;-79
2021/07/12 01:08:10;;;;;;;1.60;1.30;;;;;;;;;;5015763;28;20441;-78
2021/07/12 01:10:38;;;;;;;2.63;2.00;;;;;;;;;;4999062;28;20468;-79
2021/07/12 01:13:19;;;;;;;1.53;1.43;;;;;;;;;;5008956;28;20444;-80
2021/07/12 01:15:55;;;;;;;1.90;1.20;;;;;;;;;;5010220;28;20913;-78
2021/07/12 01:18:28;;;;;;;1.47;1.37;;;;;;;;;;5011901;28;20780;-78
2021/07/12 01:21:13;;;;;;;1.43;1.40;;;;;;;;;;5017767;28;20436;-78
2021/07/12 01:23:58;;;;;;;1.63;1.53;;;;;;;;;;5005920;28;20923;-79
2021/07/12 01:26:42;;;;;;;0.80;0.80;;;;;;;;;;5014227;28;20530;-81
2021/07/12 01:29:21;;;;;;;1.33;1.27;;;;;;;;;;5028345;28;20802;-78
2021/07/12 01:31:58;;;;;;;1.03;0.93;;;;;;;;;;5015139;28;20442;-80
2021/07/12 01:34:50;;;;;;;1.20;1.10;;;;;;;;;;4999368;28;20842;-79
2021/07/12 01:37:28;;;;;;;1.40;1.30;;;;;;;;;;5021099;28;20438;-80
2021/07/12 01:40:07;;;;;;;1.57;1.47;;;;;;;;;;5015528;28;20444;-78
2021/07/12 01:42:52;;;;;;;1.73;1.60;;;;;;;;;;5024000;28;20447;-78
2021/07/12 01:45:18;;;;;;;2.50;1.60;;;;;;;;;;5014016;28;20452;-78
2021/07/12 01:48:10;;;;;;;0.70;0.70;;;;;;;;;;5015241;28;20425;-79
2021/07/12 01:50:48;;;;;;;1.50;1.40;;;;;;;;;;5006416;28;20834;-82
2021/07/12 01:53:21;;;;;;;0.80;0.80;;;;;;;;;;5017440;28;20412;-80
2021/07/12 01:55:54;;;;;;;1.33;0.90;;;;;;;;;;5013538;28;20426;-82
2021/07/12 01:58:24;;;;;;;2.10;1.80;;;;;;;;;;5015201;28;20834;-79
2021/07/12 02:00:51;;;;;;;1.40;1.23;;;;;;;;;;5015918;28;20423;-79
2021/07/12 02:03:18;;;;;;;0.90;0.90;;;;;;;;;;5011934;28;20455;-78
2021/07/12 02:05:45;;;;;;;1.00;1.00;;;;;;;;;;5013945;28;20469;-81
2021/07/12 02:08:13;;;;;;;1.20;1.10;;;;;;;;;;5015472;28;20410;-80
2021/07/12 02:10:39;;;;;;;1.37;1.27;;;;;;;;;;5016741;28;20468;-79
2021/07/12 02:13:07;;;;;;;1.50;1.40;;;;;;;;;;5014738;28;20833;-79
2021/07/12 02:15:34;;;;;;;1.77;1.30;;;;;;;;;;5013464;28;20453;-78
2021/07/12 02:18:01;;;;;;;1.40;1.30;;;;;;;;;;5010767;28;20497;-81
2021/07/12 02:20:27;;;;;;;1.77;1.23;;;;;;;;;;5007826;28;20503;-78
2021/07/12 02:22:54;;;;;;;1.03;0.80;;;;;;;;;;5008757;28;20429;-78
2021/07/12 02:25:21;;;;;;;1.40;1.30;;;;;;;;;;5005766;28;20483;-79
2021/07/12 02:27:48;;;;;;;0.97;0.97;;;;;;;;;;5014003;28;20530;-79
2021/07/12 02:30:14;;;;;;;0.90;0.90;;;;;;;;;;5016096;28;20479;-79
2021/07/12 02:32:40;;;;;;;2.07;1.20;;;;;;;;;;5015158;28;20444;-79
2021/07/12 02:35:08;;;;;;;1.53;1.43;;;;;;;;;;5010448;28;20470;-79
2021/07/12 02:37:37;;;;;;;3.37;1.57;;;;;;;;;;5009899;28;20420;-79
2021/07/12 02:40:04;;;;;;;1.80;1.63;;;;;;;;;;5001890;28;20829;-79
2021/07/12 02:42:30;;;;;;;2.47;1.27;;;;;;;;;;5007695;28;20440;-79
2021/07/12 02:44:57;;;;;;;0.80;0.80;;;;;;;;;;5013747;28;20449;-79
2021/07/12 02:47:23;;;;;;;0.90;0.90;;;;;;;;;;5013437;28;20869;-81
2021/07/12 02:49:49;;;;;;;1.57;1.40;;;;;;;;;;5010730;28;20464;-79
2021/07/12 02:52:18;;;;;;;0.90;0.90;;;;;;;;;;5010398;28;20435;-78
2021/07/12 02:54:47;;;;;;;1.67;1.20;;;;;;;;;;5011438;28;20931;-79
2021/07/12 02:57:13;;;;;;;1.30;1.20;;;;;;;;;;5015273;28;20424;-79
2021/07/12 02:59:39;;;;;;;1.10;1.00;;;;;;;;;;5006889;28;20437;-79
2021/07/12 03:02:05;;;;;;;1.37;1.27;;;;;;;;;;5012898;28;20835;-80
2021/07/12 03:04:31;;;;;;;2.07;1.97;;;;;;;;;;5023761;28;20419;-82
2021/07/12 03:06:59;;;;;;;1.97;1.77;;;;;;;;;;5025887;28;21017;-78
2021/07/12 03:09:32;;;;;;;2.20;1.30;;;;;;;;;;5020518;28;20437;-78
2021/07/12 03:12:00;;;;;;;1.07;1.07;;;;;;;;;;5013783;28;20543;-79
2021/07/12 03:14:30;;;;;;;1.67;1.47;;;;;;;;;;5001304;28;20419;-80
2021/07/12 03:16:56;;;;;;;2.70;1.97;;;;;;;;;;5012418;28;20463;-81
2021/07/12 03:19:30;;;;;;;1.10;1.00;;;;;;;;;;5009983;28;20437;-81
2021/07/12 03:21:56;;;;;;;1.60;1.50;;;;;;;;;;5008485;28;20532;-79
2021/07/12 03:24:22;;;;;;;2.03;1.93;;;;;;;;;;5008456;28;20440;-79
2021/07/12 03:26:53;;;;;;;5.30;1.20;;;;;;;;;;5009370;28;20543;-78
2021/07/12 03:29:19;;;;;;;2.43;2.33;;;;;;;;;;5009726;28;20438;-80
2021/07/12 03:31:45;;;;;;;2.93;2.73;;;;;;;;;;5013019;28;20598;-79
2021/07/12 03:34:12;;;;;;;2.23;2.03;;;;;;;;;;5011820;28;20955;-80
2021/07/12 03:36:39;;;;;;;2.30;1.60;;;;;;;;;;5001828;28;20519;-81
2021/07/12 03:39:05;;;;;;;2.57;2.40;;;;;;;;;;5021408;28;20467;-80
2021/07/12 03:41:32;;;;;;;2.10;1.80;;;;;;;;;;5014095;28;20443;-80
2021/07/12 03:43:59;;;;;;;2.33;2.13;;;;;;;;;;5012415;28;20515;-78
2021/07/12 03:46:24;;;;;;;2.40;1.53;;;;;;;;;;5007179;28;20487;-80
2021/07/12 03:48:50;;;;;;;1.27;1.20;;;;;;;;;;5001480;28;20927;-79
2021/07/12 03:51:21;;;;;;;2.77;2.60;;;;;;;;;;5010358;28;20476;-81
2021/07/12 03:53:47;;;;;;;3.57;2.23;;;;;;;;;;5010708;28;20423;-83
2021/07/12 03:56:13;;;;;;;3.37;3.10;;;;;;;;;;5009207;28;20460;-81
2021/07/12 03:58:39;;;;;;;1.87;1.77;;;;;;;;;;5014266;28;21177;-81
2021/07/12 04:01:05;;;;;;;2.10;2.00;;;;;;;;;;5004132;28;20502;-82
2021/07/12 04:03:31;;;;;;;1.57;1.47;;;;;;;;;;5005621;28;20935;-83
2021/07/12 04:05:58;;;;;;;2.70;2.50;;;;;;;;;;5013174;28;20464;-83
2021/07/12 04:08:24;;;;;;;1.63;1.50;;;;;;;;;;5008897;28;20456;-85
2021/07/12 04:10:50;;;;;;;2.13;1.10;;;;;;;;;;5015219;28;20822;-83
2021/07/12 04:13:16;;;;;;;4.50;2.90;;;;;;;;;;5007999;28;20440;-83
2021/07/12 04:15:43;;;;;;;3.40;3.10;;;;;;;;;;5009768;28;20496;-83
2021/07/12 04:18:09;;;;;;;2.33;2.23;;;;;;;;;;5014638;28;20473;-81
2021/07/12 04:20:36;;;;;;;3.23;3.03;;;;;;;;;;5021060;28;20416;-83
2021/07/12 04:23:02;;;;;;;2.30;1.83;;;;;;;;;;5020140;28;20431;-82
2021/07/12 04:25:28;;;;;;;2.80;1.97;;;;;;;;;;5020463;28;20452;-82
2021/07/12 04:27:56;;;;;;;2.13;1.93;;;;;;;;;;5020401;28;20989;-79
2021/07/12 04:30:22;;;;;;;2.00;1.90;;;;;;;;;;5018320;28;20479;-78
2021/07/12 04:32:48;;;;;;;2.37;2.27;;;;;;;;;;5023171;28;20419;-78
2021/07/12 04:37:42;;;;;;;6.93;2.40;;;;;;;;;;5012006;22;20530;-72
2021/07/12 04:40:09;;;;;;;2.60;2.40;;;;;;;;;;4983647;28;21016;-72
2021/07/12 04:42:35;;;;;;;2.73;2.60;;;;;;;;;;4975858;28;20800;-72
2021/07/12 04:45:04;;;;;;;1.43;1.33;;;;;;;;;;4975763;28;20436;-72
2021/07/12 04:47:40;;;;;;;1.80;1.70;;;;;;;;;;4975193;28;20454;-72
2021/07/12 04:50:07;;;;;;;2.33;1.43;;;;;;;;;;4975768;28;20515;-72
2021/07/12 04:52:33;;;;;;;4.77;2.30;;;;;;;;;;4974429;28;20498;-72
2021/07/12 04:54:59;;;;;;;2.57;2.37;;;;;;;;;;4974390;28;20436;-73
2021/07/12 04:57:25;;;;;;;1.93;1.83;;;;;;;;;;4971750;28;20449;-72
2021/07/12 04:59:52;;;;;;;2.23;1.73;;;;;;;;;;4971929;28;20487;-72
2021/07/12 05:02:18;;;;;;;1.50;1.30;;;;;;;;;;4975222;28;20434;-72
2021/07/12 05:04:44;;;;;;;2.77;2.60;;;;;;;;;;4976375;28;20477;-72
2021/07/12 05:07:11;;;;;;;2.20;1.57;;;;;;;;;;4965791;28;20456;-72
2021/07/12 05:09:37;;;;;;;3.00;2.70;;;;;;;;;;4983161;28;20521;-72
2021/07/12 05:12:08;;;;;;;2.13;1.20;;;;;;;;;;4974612;28;20997;-72
2021/07/12 05:14:34;;;;;;;3.80;2.80;;;;;;;;;;4975374;28;20761;-72
2021/07/12 05:17:00;;;;;;;2.33;2.13;;;;;;;;;;4975005;28;20446;-71
2021/07/12 05:19:26;;;;;;;2.03;1.20;;;;;;;;;;4972397;28;20785;-70
2021/07/12 05:21:52;;;;;;;3.00;1.80;;;;;;;;;;4955613;28;20837;-70
2021/07/12 05:24:18;;;;;;;4.80;2.77;;;;;;;;;;4968253;28;20994;-72
2021/07/12 05:26:44;;;;;;;3.23;1.90;;;;;;;;;;4958701;28;20479;-71
2021/07/12 05:29:10;;;;;;;2.63;2.43;;;;;;;;;;4955296;28;20422;-70
2021/07/12 05:31:36;;;;;;;1.43;1.33;;;;;;;;;;4955662;28;20499;-71
2021/07/12 05:34:01;;;;;;;5.00;2.40;;;;;;;;;;4956862;28;20476;-71
2021/07/12 05:36:27;;;;;;;2.23;1.87;;;;;;;;;;4958319;28;20976;-71
2021/07/12 05:38:53;;;;;;;2.43;2.33;;;;;;;;;;4985934;28;20910;-71
2021/07/12 05:41:19;;;;;;;3.33;2.10;;;;;;;;;;4994354;28;20414;-71
2021/07/12 05:43:45;;;;;;;2.30;2.03;;;;;;;;;;4984965;28;20438;-71
2021/07/12 05:46:11;;;;;;;1.10;1.00;;;;;;;;;;4962457;28;20475;-72
2021/07/12 05:48:37;;;;;;;3.93;3.17;;;;;;;;;;4964743;28;20456;-72
2021/07/12 05:51:03;;;;;;;4.80;2.87;;;;;;;;;;4961544;28;20524;-71
2021/07/12 05:53:29;;;;;;;1.40;1.30;;;;;;;;;;4973185;28;20424;-71
2021/07/12 05:55:55;;;;;;;1.70;1.60;;;;;;;;;;4974278;28;20425;-71
2021/07/12 05:58:21;;;;;;;1.77;1.67;;;;;;;;;;4974637;28;20445;-72
2021/07/12 06:00:47;;;;;;;1.93;1.40;;;;;;;;;;4974602;28;20429;-71
2021/07/12 06:03:13;;;;;;;1.97;1.87;;;;;;;;;;4967131;28;20434;-71
2021/07/12 06:05:39;;;;;;;1.57;1.47;;;;;;;;;;4974311;28;20917;-72
2021/07/12 06:08:05;;;;;;;2.60;1.77;;;;;;;;;;4984062;28;20934;-72
2021/07/12 06:10:31;;;;;;;2.70;2.57;;;;;;;;;;4973522;28;20514;-72
2021/07/12 06:12:57;;;;;;;5.90;1.73;;;;;;;;;;4974325;28;20454;-72
2021/07/12 06:15:23;;;;;;;2.10;1.40;;;;;;;;;;4974281;28;20442;-72
2021/07/12 06:17:51;;;;;;;1.30;1.20;;;;;;;;;;4957359;28;20830;-72
2021/07/12 06:20:18;;;;;;;2.20;1.47;;;;;;;;;;4954811;28;20391;-72
2021/07/12 06:22:44;;;;;;;1.40;1.10;;;;;;;;;;4954674;29;20420;-72
2021/07/12 06:25:11;;;;;;;3.23;3.00;;;;;;;;;;4955041;29;20531;-72
2021/07/12 06:27:37;;;;;;;2.90;1.73;;;;;;;;;;4954537;29;20837;-72
2021/07/12 06:30:04;;;;;;;2.97;2.20;;;;;;;;;;4956563;28;20530;-73
2021/07/12 06:32:30;;;;;;;1.93;1.83;;;;;;;;;;4973188;28;20776;-72
2021/07/12 06:34:56;;;;;;;4.63;1.53;;;;;;;;;;4973781;28;20477;-72
2021/07/12 06:37:21;;;;;;;1.57;1.40;;;;;;;;;;4983163;28;20544;-72
2021/07/12 06:39:47;;;;;;;1.90;1.67;;;;;;;;;;4978193;28;20431;-72
2021/07/12 06:42:13;;;;;;;4.40;1.30;;;;;;;;;;4973208;28;20422;-72
2021/07/12 06:44:39;;;;;;;1.60;1.50;;;;;;;;;;4972361;28;20462;-72
2021/07/12 06:47:05;;;;;;;1.73;1.10;;;;;;;;;;4973331;28;20439;-72
2021/07/12 06:49:32;;;;;;;2.70;1.97;;;;;;;;;;4972402;28;20918;-72
2021/07/12 06:51:57;;;;;;;1.63;1.53;;;;;;;;;;4973421;28;20433;-72
2021/07/12 06:54:23;;;;;;;1.23;1.00;;;;;;;;;;4973611;28;20393;-72
2021/07/12 06:56:49;;;;;;;1.27;1.17;;;;;;;;;;4970989;28;20974;-72
2021/07/12 06:59:15;;;;;;;1.53;1.13;;;;;;;;;;4964035;28;20912;-72
2021/07/12 07:01:41;;;;;;;2.03;1.50;;;;;;;;;;4954159;28;20503;-72
2021/07/12 07:04:07;;;;;;;2.93;1.27;;;;;;;;;;4954154;28;20772;-72
2021/07/12 07:06:33;;;;;;;1.17;1.07;;;;;;;;;;4958513;28;20414;-72
2021/07/12 07:08:59;;;;;;;1.43;1.20;;;;;;;;;;4984530;28;20389;-72
2021/07/12 07:11:25;;;;;;;0.80;0.80;;;;;;;;;;4992731;28;20441;-72
2021/07/12 07:13:51;;;;;;;1.37;1.27;;;;;;;;;;4966249;28;20527;-72
2021/07/12 07:16:17;;;;;;;1.43;1.33;;;;;;;;;;4953480;28;20954;-72
2021/07/12 07:18:43;;;;;;;2.00;1.20;;;;;;;;;;4953909;28;20413;-72
2021/07/12 07:21:09;;;;;;;2.03;1.37;;;;;;;;;;4953999;28;20924;-72
2021/07/12 07:23:35;;;;;;;1.93;1.83;;;;;;;;;;4970175;28;20523;-72
2021/07/12 07:26:01;;;;;;;3.07;1.37;;;;;;;;;;4972831;28;20409;-72
2021/07/12 07:28:27;;;;;;;2.37;1.53;;;;;;;;;;4956891;28;20407;-72
2021/07/12 07:30:53;;;;;;;1.87;1.70;;;;;;;;;;4953764;29;20494;-72
2021/07/12 07:33:20;;;;;;;1.80;1.07;;;;;;;;;;4950813;28;20930;-72
2021/07/12 07:35:46;;;;;;;1.37;1.27;;;;;;;;;;4952887;28;20435;-72
2021/07/12 07:38:12;;;;;;;0.80;0.80;;;;;;;;;;4977063;28;20822;-72
2021/07/12 07:40:38;;;;;;;2.20;1.17;;;;;;;;;;4976019;28;20395;-72
2021/07/12 07:43:04;;;;;;;0.80;0.80;;;;;;;;;;4953565;28;20791;-72
2021/07/12 07:45:32;;;;;;;2.00;1.40;;;;;;;;;;4953306;28;20391;-72
2021/07/12 07:47:58;;;;;;;1.40;1.27;;;;;;;;;;4953223;29;20396;-72
2021/07/12 07:50:24;;;;;;;1.17;0.97;;;;;;;;;;4965004;28;20588;-72
2021/07/12 07:52:51;;;;;;;0.97;0.97;;;;;;;;;;4973046;28;20958;-72
2021/07/12 07:55:17;;;;;;;1.47;1.37;;;;;;;;;;4971757;28;20429;-72
2021/07/12 07:57:43;;;;;;;0.80;0.80;;;;;;;;;;4957164;28;20414;-72
2021/07/12 08:00:11;;;;;;;1.37;0.97;;;;;;;;;;4957249;28;20415;-71
2021/07/12 08:02:37;;;;;;;0.80;0.80;;;;;;;;;;4957327;29;20498;-71
2021/07/12 08:05:04;;;;;;;0.80;0.80;;;;;;;;;;4957358;29;20563;-72
2021/07/12 08:07:30;;;;;;;1.23;1.13;;;;;;;;;;4975702;28;20440;-72
2021/07/12 08:09:55;;;;;;;0.80;0.77;;;;;;;;;;4977989;28;20801;-71
2021/07/12 08:12:21;;;;;;;0.70;0.67;;;;;;;;;;4976581;28;20411;-71
2021/07/12 08:14:47;;;;;;;0.90;0.90;;;;;;;;;;4975551;28;20421;-71
2021/07/12 08:17:13;;;;;;;1.47;1.37;;;;;;;;;;4974351;28;20451;-70
2021/07/12 08:19:39;;;;;;;1.47;1.37;;;;;;;;;;4974453;28;20395;-70
2021/07/12 08:22:05;;;;;;;1.20;1.10;;;;;;;;;;4973261;28;20441;-70
2021/07/12 08:24:31;;;;;;;0.83;0.83;;;;;;;;;;4961576;28;20439;-70
2021/07/12 08:26:59;;;;;;;0.70;0.70;;;;;;;;;;4954699;28;20454;-70
2021/07/12 08:29:25;;;;;;;0.60;0.60;;;;;;;;;;4955614;29;20408;-70
2021/07/12 08:31:51;;;;;;;1.00;0.90;;;;;;;;;;4956645;29;20950;-70
2021/07/12 08:34:17;;;;;;;0.70;0.70;;;;;;;;;;4956935;28;20494;-70
2021/07/12 08:36:43;;;;;;;0.70;0.70;;;;;;;;;;4964788;28;20477;-70
2021/07/12 08:39:10;;;;;;;2.00;1.07;;;;;;;;;;4983630;28;20398;-70
2021/07/12 08:41:37;;;;;;;0.80;0.80;;;;;;;;;;4993625;28;20457;-70
2021/07/12 08:44:03;;;;;;;0.77;0.73;;;;;;;;;;4995378;28;20417;-70
2021/07/12 08:46:29;;;;;;;0.90;0.90;;;;;;;;;;4994976;28;20462;-70
2021/07/12 08:48:55;;;;;;;1.03;0.80;;;;;;;;;;4995305;28;20421;-70
2021/07/12 08:51:21;;;;;;;1.17;1.17;;;;;;;;;;4967849;28;20474;-70
2021/07/12 08:53:47;;;;;;;1.10;1.10;;;;;;;;;;4973492;28;20431;-70
2021/07/12 08:56:14;;;;;;;0.87;0.87;;;;;;;;;;4975347;28;20445;-70
2021/07/12 08:58:39;;;;;;;1.10;1.00;;;;;;;;;;4974821;28;20439;-70
2021/07/12 09:01:08;;;;;;;0.70;0.67;;;;;;;;;;4975672;28;20861;-70
2021/07/12 09:03:35;;;;;;;0.60;0.60;;;;;;;;;;4975233;28;20917;-70
2021/07/12 09:06:01;;;;;;;0.63;0.63;;;;;;;;;;4974612;28;20453;-71
2021/07/12 09:08:42;;;;;;;1.07;1.00;;;;;;;;;;4981893;28;20804;-70
2021/07/12 09:11:08;;;;;;;0.80;0.80;;;;;;;;;;4989345;28;20484;-70
2021/07/12 09:13:48;;;;;;;0.70;0.70;;;;;;;;;;4994957;28;20415;-70
2021/07/12 09:16:28;;;;;;;0.80;0.80;;;;;;;;;;4994481;28;20422;-70
2021/07/12 09:19:14;;;;;;;0.60;0.50;;;;;;;;;;4994867;28;20414;-70
2021/07/12 09:21:49;;;;;;;0.70;0.70;;;;;;;;;;4994687;28;20893;-71
2021/07/12 09:24:16;;;;;;;0.80;0.80;;;;;;;;;;4977882;28;20445;-71
2021/07/12 09:26:44;;;;;;;1.30;0.60;;;;;;;;;;4974956;28;20442;-71
2021/07/12 09:29:14;;;;;;;0.60;0.50;;;;;;;;;;4974343;28;20533;-71
2021/07/12 09:31:40;;;;;;;0.80;0.80;;;;;;;;;;4974584;28;20470;-71
2021/07/12 09:34:06;;;;;;;0.70;0.70;;;;;;;;;;4973450;28;20447;-71
2021/07/12 09:36:32;;;;;;;0.63;0.60;;;;;;;;;;4974306;28;20545;-71
2021/07/12 09:38:58;;;;;;;0.80;0.80;;;;;;;;;;4982588;28;20431;-71
2021/07/12 09:41:28;;;;;;;0.60;0.50;;;;;;;;;;4959885;28;20920;-71
2021/07/12 09:44:03;;;;;;;1.23;0.83;;;;;;;;;;4955591;29;20420;-71
2021/07/12 09:46:29;;;;;;;0.60;0.60;;;;;;;;;;4953760;28;20810;-71
2021/07/12 09:49:12;;;;;;;0.60;0.60;;;;;;;;;;4955485;28;20415;-71
2021/07/12 09:51:38;;;;;;;0.67;0.63;;;;;;;;;;4955485;28;20980;-71
2021/07/12 09:54:19;;;;;;;0.60;0.50;;;;;;;;;;4964069;28;20443;-71
2021/07/12 09:56:48;;;;;;;0.73;0.70;;;;;;;;;;4972593;28;20451;-71
2021/07/12 09:59:15;;;;;;;0.70;0.60;;;;;;;;;;4974919;28;20853;-71
2021/07/12 10:01:47;;;;;;;0.70;0.60;;;;;;;;;;4974793;28;20415;-71
2021/07/12 10:04:13;;;;;;;0.60;0.53;;;;;;;;;;4974667;28;20414;-71
2021/07/12 10:06:39;;;;;;;0.80;0.80;;;;;;;;;;4973241;28;20827;-71
2021/07/12 10:09:05;;;;;;;0.70;0.70;;;;;;;;;;4982087;28;20839;-71
2021/07/12 10:11:31;;;;;;;0.60;0.60;;;;;;;;;;4991689;28;20460;-71
2021/07/12 10:13:58;;;;;;;0.70;0.70;;;;;;;;;;4984362;28;20466;-71
2021/07/12 10:16:24;;;;;;;0.70;0.60;;;;;;;;;;4973958;28;20432;-71
2021/07/12 10:18:50;;;;;;;0.60;0.50;;;;;;;;;;4974337;28;20411;-71
2021/07/12 10:21:16;;;;;;;0.87;0.77;;;;;;;;;;4974313;28;20466;-71
2021/07/12 10:23:42;;;;;;;0.60;0.57;;;;;;;;;;4972956;28;20428;-71
2021/07/12 10:26:08;;;;;;;0.60;0.60;;;;;;;;;;4973787;28;20429;-71
2021/07/12 10:28:41;;;;;;;0.70;0.60;;;;;;;;;;4974100;28;20416;-71
2021/07/12 10:31:22;;;;;;;0.60;0.50;;;;;;;;;;4972453;28;20467;-71
2021/07/12 10:33:48;;;;;;;1.70;0.60;;;;;;;;;;4973988;28;20801;-71
2021/07/12 10:36:33;;;;;;;1.70;0.50;;;;;;;;;;5000250;22;20452;-71
2021/07/12 10:38:59;;;;;;;0.60;0.50;;;;;;;;;;4993826;28;20945;-71
2021/07/12 10:41:29;;;;;;;0.70;0.70;;;;;;;;;;4992212;28;20441;-71
2021/07/12 10:43:57;;;;;;;2.27;1.50;;;;;;;;;;4993104;28;20486;-71
2021/07/12 10:46:26;;;;;;;0.70;0.60;;;;;;;;;;4992762;28;20416;-71
2021/07/12 10:48:53;;;;;;;0.70;0.70;;;;;;;;;;4993088;28;20430;-72
2021/07/12 10:51:23;;;;;;;0.70;0.70;;;;;;;;;;4993081;28;20455;-71
2021/07/12 10:54:01;;;;;;;0.63;0.57;;;;;;;;;;4993035;28;20443;-71
2021/07/12 10:57:11;;;;;;;0.70;0.70;;;;;;;;;;4992504;28;20961;-71
2021/07/12 10:59:38;;;;;;;0.60;0.50;;;;;;;;;;4952213;29;20421;-72
2021/07/12 11:02:24;;;;;;;0.60;0.60;;;;;;;;;;4952314;29;20423;-71
2021/07/12 11:05:00;;;;;;;0.60;0.50;;;;;;;;;;4978444;28;20431;-71
2021/07/12 11:07:42;;;;;;;0.60;0.60;;;;;;;;;;4992452;28;20537;-71
2021/07/12 11:10:21;;;;;;;0.80;0.77;;;;;;;;;;5004436;28;20519;-71
2021/07/12 11:12:52;;;;;;;0.60;0.60;;;;;;;;;;5012544;28;20405;-71
2021/07/12 11:15:24;;;;;;;0.60;0.50;;;;;;;;;;5012370;28;20437;-71
2021/07/12 11:17:50;;;;;;;0.77;0.77;;;;;;;;;;5012402;28;20429;-71
2021/07/12 11:20:17;;;;;;;0.83;0.83;;;;;;;;;;4992424;28;20431;-70
2021/07/12 11:22:52;;;;;;;0.90;0.80;;;;;;;;;;4992673;28;20426;-71
2021/07/12 11:25:37;;;;;;;0.60;0.60;;;;;;;;;;4991547;28;20780;-70
2021/07/12 11:28:09;;;;;;;0.80;0.60;;;;;;;;;;4991932;28;20462;-71
2021/07/12 11:30:35;;;;;;;0.77;0.77;;;;;;;;;;4992360;28;20601;-70
2021/07/12 11:33:01;;;;;;;0.60;0.50;;;;;;;;;;4992551;28;20411;-71
2021/07/12 11:35:27;;;;;;;0.63;0.60;;;;;;;;;;4991322;28;20415;-71
2021/07/12 11:38:00;;;;;;;0.73;0.73;;;;;;;;;;4994434;28;20828;-71
2021/07/12 11:40:26;;;;;;;0.60;0.50;;;;;;;;;;5005192;28;20425;-71
2021/07/12 11:42:52;;;;;;;0.60;0.57;;;;;;;;;;5011931;28;20421;-71
2021/07/12 11:45:19;;;;;;;0.60;0.50;;;;;;;;;;5012141;28;20767;-71
2021/07/12 11:47:51;;;;;;;0.60;0.50;;;;;;;;;;5011631;28;20833;-71
2021/07/12 11:50:19;;;;;;;0.80;0.70;;;;;;;;;;5011869;28;21034;-70
2021/07/12 11:52:49;;;;;;;0.60;0.50;;;;;;;;;;5009142;28;20920;-70
2021/07/12 11:55:19;;;;;;;0.60;0.60;;;;;;;;;;4991606;28;20472;-70
2021/07/12 11:57:47;;;;;;;0.60;0.50;;;;;;;;;;4990871;28;20849;-71
2021/07/12 12:00:15;;;;;;;0.80;0.80;;;;;;;;;;5000588;28;20426;-71
2021/07/12 12:02:41;;;;;;;0.60;0.60;;;;;;;;;;4995979;28;20430;-70
2021/07/12 12:05:08;;;;;;;0.60;0.60;;;;;;;;;;4998038;28;20457;-70
2021/07/12 12:07:36;;;;;;;0.60;0.50;;;;;;;;;;5003706;28;20477;-70
2021/07/12 12:10:02;;;;;;;0.60;0.60;;;;;;;;;;4993519;28;20430;-70
2021/07/12 12:12:34;;;;;;;0.60;0.60;;;;;;;;;;4992429;28;20471;-70
2021/07/12 12:15:20;;;;;;;0.60;0.60;;;;;;;;;;4992144;28;20446;-70
2021/07/12 12:17:48;;;;;;;0.80;0.70;;;;;;;;;;4992088;28;20438;-70
2021/07/12 12:20:19;;;;;;;0.60;0.50;;;;;;;;;;4992549;28;20478;-70
2021/07/12 12:22:56;;;;;;;0.60;0.50;;;;;;;;;;4992478;28;20530;-71
2021/07/12 12:25:22;;;;;;;0.70;0.70;;;;;;;;;;4989484;28;20434;-71
2021/07/12 12:27:48;;;;;;;0.80;0.70;;;;;;;;;;4991953;28;20814;-71
2021/07/12 12:30:14;;;;;;;0.70;0.53;;;;;;;;;;4992629;28;20465;-73
2021/07/12 12:32:40;;;;;;;0.80;0.80;;;;;;;;;;4992849;28;20833;-73
2021/07/12 12:35:07;;;;;;;0.60;0.60;;;;;;;;;;4998052;28;20483;-72
2021/07/12 12:37:34;;;;;;;0.90;0.63;;;;;;;;;;5003185;28;20548;-77
2021/07/12 12:40:18;;;;;;;0.60;0.47;;;;;;;;;;4996376;28;20424;-71
2021/07/12 12:42:46;;;;;;;0.90;0.90;;;;;;;;;;4978991;28;20484;-73
2021/07/12 12:45:12;;;;;;;0.60;0.60;;;;;;;;;;4995860;28;20403;-71
2021/07/12 12:47:43;;;;;;;0.60;0.60;;;;;;;;;;4995737;28;20797;-71
2021/07/12 12:50:13;;;;;;;0.73;0.73;;;;;;;;;;4995001;28;20466;-71
2021/07/12 12:52:39;;;;;;;0.50;0.50;;;;;;;;;;4995969;28;20415;-72
2021/07/12 12:55:12;;;;;;;0.70;0.70;;;;;;;;;;4995183;28;20449;-72
2021/07/12 12:57:39;;;;;;;1.00;0.90;;;;;;;;;;4995176;28;20424;-71
2021/07/12 13:00:11;;;;;;;0.60;0.50;;;;;;;;;;4995143;28;20430;-71
2021/07/12 13:02:41;;;;;;;0.60;0.60;;;;;;;;;;4995625;28;20901;-70
2021/07/12 13:05:16;;;;;;;0.60;0.50;;;;;;;;;;5001840;28;20481;-71
2021/07/12 13:07:44;;;;;;;0.70;0.67;;;;;;;;;;5006748;28;20785;-71
2021/07/12 13:10:16;;;;;;;0.60;0.50;;;;;;;;;;5014984;28;20453;-71
2021/07/12 13:12:44;;;;;;;0.60;0.60;;;;;;;;;;5014951;28;20520;-71
2021/07/12 13:15:11;;;;;;;0.60;0.57;;;;;;;;;;5016030;28;20493;-71
2021/07/12 13:17:38;;;;;;;1.00;0.90;;;;;;;;;;4999880;28;20454;-71
2021/07/12 13:20:14;;;;;;;0.87;0.87;;;;;;;;;;4997687;28;20754;-71
2021/07/12 13:22:41;;;;;;;0.60;0.50;;;;;;;;;;4996201;28;20707;-72
2021/07/12 13:25:14;;;;;;;0.80;0.80;;;;;;;;;;4994566;28;20444;-71
2021/07/12 13:27:50;;;;;;;0.73;0.70;;;;;;;;;;4994646;28;20449;-72
2021/07/12 13:30:16;;;;;;;0.60;0.50;;;;;;;;;;4994726;28;20459;-72
2021/07/12 13:32:46;;;;;;;1.00;0.63;;;;;;;;;;4995026;28;20429;-71
2021/07/12 13:35:18;;;;;;;1.37;0.83;;;;;;;;;;5001001;28;20418;-72
2021/07/12 13:37:44;;;;;;;0.70;0.70;;;;;;;;;;5005872;28;21003;-72
2021/07/12 13:40:10;;;;;;;0.73;0.50;;;;;;;;;;5004857;28;20549;-71
2021/07/12 13:42:37;;;;;;;0.70;0.60;;;;;;;;;;4995353;28;20789;-71
2021/07/12 13:45:03;;;;;;;0.83;0.83;;;;;;;;;;4994918;28;20438;-71
2021/07/12 13:47:29;;;;;;;0.60;0.50;;;;;;;;;;4994568;28;20435;-71
2021/07/12 13:49:55;;;;;;;0.73;0.70;;;;;;;;;;4994517;28;20435;-72
2021/07/12 13:52:21;;;;;;;1.10;0.97;;;;;;;;;;4994720;28;20514;-71
2021/07/12 13:54:47;;;;;;;0.83;0.83;;;;;;;;;;4994039;28;20466;-71
2021/07/12 13:57:13;;;;;;;0.60;0.53;;;;;;;;;;4994250;28;20954;-71
2021/07/12 13:59:43;;;;;;;0.60;0.50;;;;;;;;;;4994692;28;20399;-71
2021/07/12 14:02:13;;;;;;;0.80;0.60;;;;;;;;;;4995865;28;20944;-71
2021/07/12 14:04:40;;;;;;;0.60;0.60;;;;;;;;;;4998056;28;20434;-71
2021/07/12 14:07:06;;;;;;;0.60;0.60;;;;;;;;;;5006455;28;20451;-71
2021/07/12 14:09:32;;;;;;;0.70;0.60;;;;;;;;;;5015990;28;20410;-71
2021/07/12 14:11:59;;;;;;;0.70;0.60;;;;;;;;;;5015475;28;20470;-71
2021/07/12 14:14:26;;;;;;;0.67;0.67;;;;;;;;;;5015835;28;20986;-71
2021/07/12 14:16:52;;;;;;;0.77;0.77;;;;;;;;;;5014243;28;20480;-71
2021/07/12 14:19:18;;;;;;;0.60;0.50;;;;;;;;;;5009627;28;20899;-71
2021/07/12 14:21:44;;;;;;;1.07;0.97;;;;;;;;;;4993984;28;20423;-71
2021/07/12 14:24:10;;;;;;;0.70;0.63;;;;;;;;;;4994320;28;20952;-71
2021/07/12 14:26:36;;;;;;;0.60;0.60;;;;;;;;;;4993701;28;20879;-70
2021/07/12 14:29:02;;;;;;;0.60;0.60;;;;;;;;;;4994194;28;21165;-71
2021/07/12 14:31:28;;;;;;;0.60;0.60;;;;;;;;;;4994136;28;20465;-71
2021/07/12 14:33:54;;;;;;;0.60;0.60;;;;;;;;;;4993994;28;20449;-71
2021/07/12 14:36:21;;;;;;;0.60;0.50;;;;;;;;;;5001277;28;20446;-70
2021/07/12 14:38:47;;;;;;;0.80;0.63;;;;;;;;;;5011649;28;20414;-70
2021/07/12 14:41:13;;;;;;;0.80;0.80;;;;;;;;;;4993576;28;20926;-71
2021/07/12 14:43:39;;;;;;;0.70;0.60;;;;;;;;;;4994069;28;20910;-70
2021/07/12 14:46:05;;;;;;;0.60;0.57;;;;;;;;;;4993585;28;20414;-71
2021/07/12 14:48:32;;;;;;;0.63;0.57;;;;;;;;;;4993438;28;20436;-70
2021/07/12 14:51:01;;;;;;;1.00;1.00;;;;;;;;;;4993546;28;20497;-70
2021/07/12 14:53:27;;;;;;;0.60;0.60;;;;;;;;;;4993730;28;20410;-71